sensor_id;sensor_type;location;lat;lon;timestamp;pressure;altitude;pressure_sealevel;temperature;humidity
70968;BME280;58629;48.808;8.820;2023-11-21T00:02:18;96498.22;;;6.29;100.00
70968;BME280;58629;48.808;8.820;2023-11-21T00:04:43;96501.53;;;6.33;100.00
70968;BME280;58629;48.808;8.820;2023-11-21T00:07:09;96497.03;;;6.33;100.00
70968;BME280;58629;48.808;8.820;2023-11-21T00:09:35;96500.78;;;6.36;100.00
70968;BME280;58629;48.808;8.820;2023-11-21T00:12:01;96497.41;;;6.35;100.00
70968;BME280;58629;48.808;8.820;2023-11-21T00:14:27;96494.75;;;6.35;100.00
70968;BME280;58629;48.808;8.820;2023-11-21T00:16:52;96496.28;;;6.33;100.00
70968;BME280;58629;48.808;8.820;2023-11-21T00:19:18;96494.41;;;6.33;100.00
70968;BME280;58629;48.808;8.820;2023-11-21T00:21:43;96487.63;;;6.36;100.00
70968;BME280;58629;48.808;8.820;2023-11-21T00:24:11;96486.06;;;6.38;100.00
70968;BME280;58629;48.808;8.820;2023-11-21T00:26:41;96487.59;;;6.39;100.00
70968;BME280;58629;48.808;8.820;2023-11-21T00:29:06;96480.03;;;6.41;100.00
70968;BME280;58629;48.808;8.820;2023-11-21T00:31:35;96484.91;;;6.43;100.00
70968;BME280;58629;48.808;8.820;2023-11-21T00:34:02;96489.03;;;6.44;100.00
70968;BME280;58629;48.808;8.820;2023-11-21T00:36:30;96482.97;;;6.47;100.00
70968;BME280;58629;48.808;8.820;2023-11-21T00:38:56;96489.72;;;6.48;100.00
70968;BME280;58629;48.808;8.820;2023-11-21T00:41:21;96481.44;;;6.49;100.00
70968;BME280;58629;48.808;8.820;2023-11-21T00:43:46;96488.59;;;6.49;100.00
70968;BME280;58629;48.808;8.820;2023-11-21T00:46:12;96491.25;;;6.45;100.00
70968;BME280;58629;48.808;8.820;2023-11-21T00:48:37;96492.75;;;6.46;100.00
70968;BME280;58629;48.808;8.820;2023-11-21T00:51:02;96490.81;;;6.50;100.00
70968;BME280;58629;48.808;8.820;2023-11-21T00:53:28;96493.84;;;6.49;100.00
70968;BME280;58629;48.808;8.820;2023-11-21T00:55:53;96488.94;;;6.51;100.00
70968;BME280;58629;48.808;8.820;2023-11-21T00:58:23;96502.78;;;6.55;100.00
70968;BME280;58629;48.808;8.820;2023-11-21T01:00:48;96497.88;;;6.57;100.00
70968;BME280;58629;48.808;8.820;2023-11-21T01:03:14;96487.72;;;6.59;100.00
70968;BME280;58629;48.808;8.820;2023-11-21T01:05:39;96483.94;;;6.60;100.00
70968;BME280;58629;48.808;8.820;2023-11-21T01:08:04;96487.66;;;6.62;100.00
70968;BME280;58629;48.808;8.820;2023-11-21T01:10:30;96483.16;;;6.63;100.00
70968;BME280;58629;48.808;8.820;2023-11-21T01:12:56;96493.69;;;6.63;100.00
70968;BME280;58629;48.808;8.820;2023-11-21T01:15:23;96490.25;;;6.66;100.00
70968;BME280;58629;48.808;8.820;2023-11-21T01:17:48;96493.22;;;6.68;100.00
70968;BME280;58629;48.808;8.820;2023-11-21T01:20:13;96501.88;;;6.68;100.00
70968;BME280;58629;48.808;8.820;2023-11-21T01:22:39;96496.22;;;6.70;100.00
70968;BME280;58629;48.808;8.820;2023-11-21T01:25:05;96498.06;;;6.73;100.00
70968;BME280;58629;48.808;8.820;2023-11-21T01:27:35;96502.16;;;6.74;100.00
70968;BME280;58629;48.808;8.820;2023-11-21T01:30:02;96502.53;;;6.76;100.00
70968;BME280;58629;48.808;8.820;2023-11-21T01:32:28;96495.03;;;6.74;100.00
70968;BME280;58629;48.808;8.820;2023-11-21T01:34:53;96492.00;;;6.76;100.00
70968;BME280;58629;48.808;8.820;2023-11-21T01:37:20;96491.59;;;6.77;100.00
70968;BME280;58629;48.808;8.820;2023-11-21T01:39:47;96488.25;;;6.77;100.00
70968;BME280;58629;48.808;8.820;2023-11-21T01:42:12;96493.84;;;6.79;100.00
70968;BME280;58629;48.808;8.820;2023-11-21T01:44:38;96485.97;;;6.79;100.00
70968;BME280;58629;48.808;8.820;2023-11-21T01:47:04;96482.16;;;6.80;100.00
70968;BME280;58629;48.808;8.820;2023-11-21T01:49:33;96489.31;;;6.79;100.00
70968;BME280;58629;48.808;8.820;2023-11-21T01:51:59;96490.41;;;6.82;100.00
70968;BME280;58629;48.808;8.820;2023-11-21T01:54:25;96478.41;;;6.81;100.00
70968;BME280;58629;48.808;8.820;2023-11-21T01:56:50;96478.41;;;6.81;100.00
70968;BME280;58629;48.808;8.820;2023-11-21T01:59:19;96479.53;;;6.80;100.00
70968;BME280;58629;48.808;8.820;2023-11-21T02:01:46;96486.69;;;6.79;100.00
70968;BME280;58629;48.808;8.820;2023-11-21T02:04:12;96491.94;;;6.79;100.00
70968;BME280;58629;48.808;8.820;2023-11-21T02:06:37;96486.31;;;6.81;100.00
70968;BME280;58629;48.808;8.820;2023-11-21T02:09:04;96487.44;;;6.80;100.00
70968;BME280;58629;48.808;8.820;2023-11-21T02:11:30;96479.19;;;6.78;100.00
70968;BME280;58629;48.808;8.820;2023-11-21T02:13:55;96478.41;;;6.81;100.00
70968;BME280;58629;48.808;8.820;2023-11-21T02:16:21;96484.41;;;6.81;100.00
70968;BME280;58629;48.808;8.820;2023-11-21T02:18:47;96486.31;;;6.81;100.00
70968;BME280;58629;48.808;8.820;2023-11-21T02:21:14;96487.03;;;6.81;100.00
70968;BME280;58629;48.808;8.820;2023-11-21T02:23:39;96484.75;;;6.83;100.00
70968;BME280;58629;48.808;8.820;2023-11-21T02:26:07;96483.97;;;6.86;100.00
70968;BME280;58629;48.808;8.820;2023-11-21T02:28:33;96486.59;;;6.86;100.00
70968;BME280;58629;48.808;8.820;2023-11-21T02:30:58;96478.72;;;6.86;100.00
70968;BME280;58629;48.808;8.820;2023-11-21T02:33:24;96487.72;;;6.85;100.00
70968;BME280;58629;48.808;8.820;2023-11-21T02:35:50;96486.94;;;6.88;100.00
70968;BME280;58629;48.808;8.820;2023-11-21T02:38:23;96485.06;;;6.89;100.00
70968;BME280;58629;48.808;8.820;2023-11-21T02:40:48;96474.47;;;6.92;100.00
70968;BME280;58629;48.808;8.820;2023-11-21T02:43:14;96477.56;;;6.87;100.00
70968;BME280;58629;48.808;8.820;2023-11-21T02:45:39;96476.41;;;6.88;100.00
70968;BME280;58629;48.808;8.820;2023-11-21T02:48:07;96480.53;;;6.89;100.00
70968;BME280;58629;48.808;8.820;2023-11-21T02:50:32;96468.13;;;6.90;100.00
70968;BME280;58629;48.808;8.820;2023-11-21T02:52:58;96467.38;;;6.89;100.00
70968;BME280;58629;48.808;8.820;2023-11-21T02:55:26;96465.84;;;6.92;100.00
70968;BME280;58629;48.808;8.820;2023-11-21T02:57:51;96467.44;;;6.86;100.00
70968;BME280;58629;48.808;8.820;2023-11-21T03:00:16;96466.28;;;6.87;100.00
70968;BME280;58629;48.808;8.820;2023-11-21T03:02:43;96465.97;;;6.81;100.00
70968;BME280;58629;48.808;8.820;2023-11-21T03:05:09;96458.44;;;6.83;100.00
70968;BME280;58629;48.808;8.820;2023-11-21T03:07:36;96460.34;;;6.83;100.00
70968;BME280;58629;48.808;8.820;2023-11-21T03:10:02;96461.06;;;6.83;100.00
70968;BME280;58629;48.808;8.820;2023-11-21T03:12:29;96464.78;;;6.86;100.00
70968;BME280;58629;48.808;8.820;2023-11-21T03:14:54;96461.03;;;6.87;100.00
70968;BME280;58629;48.808;8.820;2023-11-21T03:17:19;96465.16;;;6.88;100.00
70968;BME280;58629;48.808;8.820;2023-11-21T03:19:45;96468.88;;;6.90;100.00
70968;BME280;58629;48.808;8.820;2023-11-21T03:22:10;96465.91;;;6.88;100.00
70968;BME280;58629;48.808;8.820;2023-11-21T03:24:37;96464.31;;;6.94;100.00
70968;BME280;58629;48.808;8.820;2023-11-21T03:27:03;96472.56;;;6.96;100.00
70968;BME280;58629;48.808;8.820;2023-11-21T03:29:29;96465.00;;;6.98;100.00
70968;BME280;58629;48.808;8.820;2023-11-21T03:31:54;96466.88;;;6.98;100.00
70968;BME280;58629;48.808;8.820;2023-11-21T03:34:24;96478.16;;;6.98;100.00
70968;BME280;58629;48.808;8.820;2023-11-21T03:36:50;96477.75;;;7.00;100.00
70968;BME280;58629;48.808;8.820;2023-11-21T03:39:16;96473.66;;;6.99;100.00
70968;BME280;58629;48.808;8.820;2023-11-21T03:41:41;96474.72;;;7.01;100.00
70968;BME280;58629;48.808;8.820;2023-11-21T03:44:06;96478.44;;;7.04;100.00
70968;BME280;58629;48.808;8.820;2023-11-21T03:46:32;96476.56;;;7.05;100.00
70968;BME280;58629;48.808;8.820;2023-11-21T03:48:57;96475.41;;;7.06;100.00
70968;BME280;58629;48.808;8.820;2023-11-21T03:51:22;96465.63;;;7.06;100.00
70968;BME280;58629;48.808;8.820;2023-11-21T03:53:48;96477.31;;;7.05;100.00
70968;BME280;58629;48.808;8.820;2023-11-21T03:56:13;96478.84;;;7.03;100.00
70968;BME280;58629;48.808;8.820;2023-11-21T03:58:39;96481.13;;;7.00;100.00
70968;BME280;58629;48.808;8.820;2023-11-21T04:01:05;96486.81;;;6.99;100.00
70968;BME280;58629;48.808;8.820;2023-11-21T04:03:30;96484.56;;;6.97;100.00
70968;BME280;58629;48.808;8.820;2023-11-21T04:05:55;96488.41;;;6.93;100.00
70968;BME280;58629;48.808;8.820;2023-11-21T04:08:21;96480.94;;;6.88;100.00
70968;BME280;58629;48.808;8.820;2023-11-21T04:10:46;96483.63;;;6.84;100.00
70968;BME280;58629;48.808;8.820;2023-11-21T04:13:11;96479.84;;;6.85;100.00
70968;BME280;58629;48.808;8.820;2023-11-21T04:15:37;96480.59;;;6.86;100.00
70968;BME280;58629;48.808;8.820;2023-11-21T04:18:02;96484.75;;;6.83;100.00
70968;BME280;58629;48.808;8.820;2023-11-21T04:20:28;96494.16;;;6.84;100.00
70968;BME280;58629;48.808;8.820;2023-11-21T04:22:53;96489.66;;;6.81;100.00
70968;BME280;58629;48.808;8.820;2023-11-21T04:25:19;96499.06;;;6.82;100.00
70968;BME280;58629;48.808;8.820;2023-11-21T04:27:45;96497.97;;;6.80;100.00
70968;BME280;58629;48.808;8.820;2023-11-21T04:30:11;96493.78;;;6.82;100.00
70968;BME280;58629;48.808;8.820;2023-11-21T04:32:37;96490.34;;;6.85;100.00
70968;BME280;58629;48.808;8.820;2023-11-21T04:35:03;96491.47;;;6.88;100.00
70968;BME280;58629;48.808;8.820;2023-11-21T04:37:29;96501.28;;;6.84;100.00
70968;BME280;58629;48.808;8.820;2023-11-21T04:39:54;96498.66;;;6.84;100.00
70968;BME280;58629;48.808;8.820;2023-11-21T04:42:20;96501.63;;;6.86;100.00
70968;BME280;58629;48.808;8.820;2023-11-21T04:44:45;96505.78;;;6.87;100.00
70968;BME280;58629;48.808;8.820;2023-11-21T04:47:10;96514.41;;;6.87;100.00
70968;BME280;58629;48.808;8.820;2023-11-21T04:49:36;96514.03;;;6.89;100.00
70968;BME280;58629;48.808;8.820;2023-11-21T04:52:01;96515.91;;;6.88;100.00
70968;BME280;58629;48.808;8.820;2023-11-21T04:54:28;96510.63;;;6.88;100.00
70968;BME280;58629;48.808;8.820;2023-11-21T04:56:54;96509.13;;;6.87;100.00
70968;BME280;58629;48.808;8.820;2023-11-21T04:59:19;96506.56;;;6.84;100.00
70968;BME280;58629;48.808;8.820;2023-11-21T05:01:44;96514.03;;;6.85;100.00
70968;BME280;58629;48.808;8.820;2023-11-21T05:04:10;96507.06;;;6.75;100.00
70968;BME280;58629;48.808;8.820;2023-11-21T05:06:35;96510.13;;;6.70;100.00
70968;BME280;58629;48.808;8.820;2023-11-21T05:09:00;96508.53;;;6.76;100.00
70968;BME280;58629;48.808;8.820;2023-11-21T05:11:27;96506.25;;;6.78;100.00
70968;BME280;58629;48.808;8.820;2023-11-21T05:13:53;96505.09;;;6.79;100.00
70968;BME280;58629;48.808;8.820;2023-11-21T05:16:19;96506.94;;;6.82;100.00
70968;BME280;58629;48.808;8.820;2023-11-21T05:18:45;96509.19;;;6.84;100.00
70968;BME280;58629;48.808;8.820;2023-11-21T05:21:10;96505.06;;;6.83;100.00
70968;BME280;58629;48.808;8.820;2023-11-21T05:23:36;96506.59;;;6.80;100.00
70968;BME280;58629;48.808;8.820;2023-11-21T05:26:02;96502.47;;;6.79;100.00
70968;BME280;58629;48.808;8.820;2023-11-21T05:28:28;96511.50;;;6.78;100.00
70968;BME280;58629;48.808;8.820;2023-11-21T05:30:53;96515.31;;;6.74;100.00
70968;BME280;58629;48.808;8.820;2023-11-21T05:33:18;96514.28;;;6.68;100.00
70968;BME280;58629;48.808;8.820;2023-11-21T05:35:44;96519.88;;;6.70;100.00
70968;BME280;58629;48.808;8.820;2023-11-21T05:38:09;96524.78;;;6.71;100.00
70968;BME280;58629;48.808;8.820;2023-11-21T05:40:34;96540.22;;;6.69;100.00
70968;BME280;58629;48.808;8.820;2023-11-21T05:43:00;96541.78;;;6.63;100.00
70968;BME280;58629;48.808;8.820;2023-11-21T05:45:25;96541.38;;;6.65;100.00
70968;BME280;58629;48.808;8.820;2023-11-21T05:47:50;96536.53;;;6.63;100.00
70968;BME280;58629;48.808;8.820;2023-11-21T05:50:16;96542.50;;;6.64;100.00
70968;BME280;58629;48.808;8.820;2023-11-21T05:52:43;96539.53;;;6.62;100.00
70968;BME280;58629;48.808;8.820;2023-11-21T05:55:09;96541.03;;;6.63;100.00
70968;BME280;58629;48.808;8.820;2023-11-21T05:57:37;96548.53;;;6.64;100.00
70968;BME280;58629;48.808;8.820;2023-11-21T06:00:07;96547.41;;;6.62;100.00
70968;BME280;58629;48.808;8.820;2023-11-21T06:02:51;96551.16;;;6.64;100.00
70968;BME280;58629;48.808;8.820;2023-11-21T06:05:19;96554.59;;;6.61;100.00
70968;BME280;58629;48.808;8.820;2023-11-21T06:07:45;96560.06;;;7.04;100.00
70968;BME280;58629;48.808;8.820;2023-11-21T06:10:11;96551.88;;;7.52;100.00
70968;BME280;58629;48.808;8.820;2023-11-21T06:12:40;96554.56;;;7.71;100.00
70968;BME280;58629;48.808;8.820;2023-11-21T06:15:08;96560.63;;;8.15;100.00
70968;BME280;58629;48.808;8.820;2023-11-21T06:17:34;96560.56;;;8.41;100.00
70968;BME280;58629;48.808;8.820;2023-11-21T06:20:02;96566.94;;;8.63;100.00
70968;BME280;58629;48.808;8.820;2023-11-21T06:22:37;96565.31;;;8.89;100.00
70968;BME280;58629;48.808;8.820;2023-11-21T06:25:02;96566.81;;;9.06;100.00
70968;BME280;58629;48.808;8.820;2023-11-21T06:27:29;96566.78;;;9.26;100.00
70968;BME280;58629;48.808;8.820;2023-11-21T06:29:55;96556.66;;;9.40;100.00
70968;BME280;58629;48.808;8.820;2023-11-21T06:32:20;96566.16;;;9.54;100.00
70968;BME280;58629;48.808;8.820;2023-11-21T06:34:47;96562.28;;;9.58;100.00
70968;BME280;58629;48.808;8.820;2023-11-21T06:37:13;96569.63;;;9.67;100.00
70968;BME280;58629;48.808;8.820;2023-11-21T06:39:38;96572.66;;;9.33;100.00
70968;BME280;58629;48.808;8.820;2023-11-21T06:42:03;96574.63;;;9.29;100.00
70968;BME280;58629;48.808;8.820;2023-11-21T06:44:29;96574.78;;;9.22;100.00
70968;BME280;58629;48.808;8.820;2023-11-21T06:46:55;96576.03;;;9.34;100.00
70968;BME280;58629;48.808;8.820;2023-11-21T06:49:20;96585.44;;;9.35;100.00
70968;BME280;58629;48.808;8.820;2023-11-21T06:51:45;96584.22;;;9.39;100.00
70968;BME280;58629;48.808;8.820;2023-11-21T06:54:10;96583.41;;;9.42;100.00
70968;BME280;58629;48.808;8.820;2023-11-21T06:56:36;96583.81;;;9.41;100.00
70968;BME280;58629;48.808;8.820;2023-11-21T06:59:01;96593.25;;;9.42;100.00
70968;BME280;58629;48.808;8.820;2023-11-21T07:01:28;96605.94;;;9.47;100.00
70968;BME280;58629;48.808;8.820;2023-11-21T07:03:53;96605.16;;;9.50;100.00
70968;BME280;58629;48.808;8.820;2023-11-21T07:06:18;96605.16;;;9.50;100.00
70968;BME280;58629;48.808;8.820;2023-11-21T07:08:44;96604.06;;;9.47;100.00
70968;BME280;58629;48.808;8.820;2023-11-21T07:11:09;96610.34;;;9.53;100.00
70968;BME280;58629;48.808;8.820;2023-11-21T07:13:34;96608.38;;;9.57;100.00
70968;BME280;58629;48.808;8.820;2023-11-21T07:16:00;96611.34;;;9.59;100.00
70968;BME280;58629;48.808;8.820;2023-11-21T07:18:25;96610.53;;;9.63;100.00
70968;BME280;58629;48.808;8.820;2023-11-21T07:20:51;96618.72;;;9.68;100.00
70968;BME280;58629;48.808;8.820;2023-11-21T07:23:17;96614.81;;;9.73;100.00
70968;BME280;58629;48.808;8.820;2023-11-21T07:25:42;96621.53;;;9.77;100.00
70968;BME280;58629;48.808;8.820;2023-11-21T07:28:08;96625.91;;;9.84;100.00
70968;BME280;58629;48.808;8.820;2023-11-21T07:30:33;96630.03;;;9.85;100.00
70968;BME280;58629;48.808;8.820;2023-11-21T07:32:59;96630.38;;;9.87;100.00
70968;BME280;58629;48.808;8.820;2023-11-21T07:35:24;96635.25;;;9.88;100.00
70968;BME280;58629;48.808;8.820;2023-11-21T07:37:49;96634.84;;;9.90;100.00
70968;BME280;58629;48.808;8.820;2023-11-21T07:40:15;96640.47;;;9.92;100.00
70968;BME280;58629;48.808;8.820;2023-11-21T07:42:42;96636.25;;;9.94;100.00
70968;BME280;58629;48.808;8.820;2023-11-21T07:45:08;96641.94;;;9.93;100.00
70968;BME280;58629;48.808;8.820;2023-11-21T07:47:33;96638.16;;;9.94;100.00
70968;BME280;58629;48.808;8.820;2023-11-21T07:50:00;96644.19;;;9.94;100.00
70968;BME280;58629;48.808;8.820;2023-11-21T07:52:25;96645.56;;;9.99;100.00
70968;BME280;58629;48.808;8.820;2023-11-21T07:54:50;96653.84;;;10.01;100.00
70968;BME280;58629;48.808;8.820;2023-11-21T07:57:16;96652.19;;;10.07;100.00
70968;BME280;58629;48.808;8.820;2023-11-21T07:59:41;96653.28;;;10.09;100.00
70968;BME280;58629;48.808;8.820;2023-11-21T08:02:07;96660.34;;;10.16;100.00
70968;BME280;58629;48.808;8.820;2023-11-21T08:04:33;96657.59;;;10.19;100.00
70968;BME280;58629;48.808;8.820;2023-11-21T08:06:59;96655.63;;;10.23;100.00
70968;BME280;58629;48.808;8.820;2023-11-21T08:09:24;96658.25;;;10.23;100.00
70968;BME280;58629;48.808;8.820;2023-11-21T08:11:50;96665.78;;;10.25;100.00
70968;BME280;58629;48.808;8.820;2023-11-21T08:14:17;96662.66;;;10.30;100.00
70968;BME280;58629;48.808;8.820;2023-11-21T08:16:42;96659.34;;;10.26;100.00
70968;BME280;58629;48.808;8.820;2023-11-21T08:19:07;96660.41;;;10.28;100.00
70968;BME280;58629;48.808;8.820;2023-11-21T08:21:34;96661.81;;;10.33;100.00
70968;BME280;58629;48.808;8.820;2023-11-21T08:24:01;96666.25;;;10.36;100.00
70968;BME280;58629;48.808;8.820;2023-11-21T08:26:27;96657.94;;;10.37;100.00
70968;BME280;58629;48.808;8.820;2023-11-21T08:28:52;96658.97;;;10.40;100.00
70968;BME280;58629;48.808;8.820;2023-11-21T08:31:23;96669.06;;;10.45;100.00
70968;BME280;58629;48.808;8.820;2023-11-21T08:33:49;96659.63;;;10.44;100.00
70968;BME280;58629;48.808;8.820;2023-11-21T08:36:14;96658.72;;;10.51;100.00
70968;BME280;58629;48.808;8.820;2023-11-21T08:38:40;96667.41;;;10.51;100.00
70968;BME280;58629;48.808;8.820;2023-11-21T08:41:07;96673.03;;;10.53;100.00
70968;BME280;58629;48.808;8.820;2023-11-21T08:43:36;96672.63;;;10.55;100.00
70968;BME280;58629;48.808;8.820;2023-11-21T08:46:06;96675.69;;;10.53;100.00
70968;BME280;58629;48.808;8.820;2023-11-21T08:48:31;96682.66;;;10.47;99.87
70968;BME280;58629;48.808;8.820;2023-11-21T08:50:57;96681.78;;;10.50;100.00
70968;BME280;58629;48.808;8.820;2023-11-21T08:53:22;96686.53;;;10.42;98.16
70968;BME280;58629;48.808;8.820;2023-11-21T08:55:48;96684.81;;;10.20;100.00
70968;BME280;58629;48.808;8.820;2023-11-21T08:58:15;96682.09;;;10.23;100.00
70968;BME280;58629;48.808;8.820;2023-11-21T09:00:41;96692.25;;;10.25;100.00
70968;BME280;58629;48.808;8.820;2023-11-21T09:03:06;96686.72;;;10.19;100.00
70968;BME280;58629;48.808;8.820;2023-11-21T09:05:37;96694.41;;;10.30;100.00
70968;BME280;58629;48.808;8.820;2023-11-21T09:08:02;96693.09;;;10.02;100.00
70968;BME280;58629;48.808;8.820;2023-11-21T09:10:27;96689.94;;;10.11;100.00
70968;BME280;58629;48.808;8.820;2023-11-21T09:12:53;96692.72;;;10.04;100.00
70968;BME280;58629;48.808;8.820;2023-11-21T09:15:18;96696.44;;;9.71;100.00
70968;BME280;58629;48.808;8.820;2023-11-21T09:17:45;96701.47;;;9.65;100.00
70968;BME280;58629;48.808;8.820;2023-11-21T09:20:11;96704.50;;;9.47;100.00
70968;BME280;58629;48.808;8.820;2023-11-21T09:22:36;96712.81;;;9.66;100.00
70968;BME280;58629;48.808;8.820;2023-11-21T09:25:01;96720.22;;;9.54;100.00
70968;BME280;58629;48.808;8.820;2023-11-21T09:27:33;96712.28;;;9.54;100.00
70968;BME280;58629;48.808;8.820;2023-11-21T09:29:58;96722.56;;;9.69;100.00
70968;BME280;58629;48.808;8.820;2023-11-21T09:32:24;96725.16;;;9.72;100.00
70968;BME280;58629;48.808;8.820;2023-11-21T09:34:49;96736.69;;;9.62;100.00
70968;BME280;58629;48.808;8.820;2023-11-21T09:37:16;96730.16;;;9.47;100.00
70968;BME280;58629;48.808;8.820;2023-11-21T09:39:41;96736.06;;;9.35;100.00
70968;BME280;58629;48.808;8.820;2023-11-21T09:42:21;96731.59;;;9.12;100.00
70968;BME280;58629;48.808;8.820;2023-11-21T09:45:00;96738.16;;;9.04;100.00
70968;BME280;58629;48.808;8.820;2023-11-21T09:47:29;96736.34;;;9.01;100.00
70968;BME280;58629;48.808;8.820;2023-11-21T09:49:56;96738.22;;;9.01;100.00
70968;BME280;58629;48.808;8.820;2023-11-21T09:52:27;96741.00;;;8.70;100.00
70968;BME280;58629;48.808;8.820;2023-11-21T09:54:53;96745.59;;;8.66;100.00
70968;BME280;58629;48.808;8.820;2023-11-21T09:57:23;96743.66;;;8.70;100.00
70968;BME280;58629;48.808;8.820;2023-11-21T09:59:52;96740.66;;;8.68;100.00
70968;BME280;58629;48.808;8.820;2023-11-21T10:02:25;96743.31;;;8.45;100.00
70968;BME280;58629;48.808;8.820;2023-11-21T10:04:52;96746.16;;;8.31;100.00
70968;BME280;58629;48.808;8.820;2023-11-21T10:07:19;96744.31;;;8.28;100.00
70968;BME280;58629;48.808;8.820;2023-11-21T10:09:46;96740.59;;;8.22;100.00
70968;BME280;58629;48.808;8.820;2023-11-21T10:12:14;96738.56;;;8.07;100.00
70968;BME280;58629;48.808;8.820;2023-11-21T10:14:41;96741.81;;;7.91;100.00
70968;BME280;58629;48.808;8.820;2023-11-21T10:17:10;96740.66;;;7.92;100.00
70968;BME280;58629;48.808;8.820;2023-11-21T10:19:38;96748.97;;;7.90;100.00
70968;BME280;58629;48.808;8.820;2023-11-21T10:22:04;96762.66;;;7.82;100.00
70968;BME280;58629;48.808;8.820;2023-11-21T10:24:32;96761.44;;;7.86;100.00
70968;BME280;58629;48.808;8.820;2023-11-21T10:26:57;96751.66;;;7.87;100.00
70968;BME280;58629;48.808;8.820;2023-11-21T10:29:23;96754.03;;;7.78;100.00
70968;BME280;58629;48.808;8.820;2023-11-21T10:31:51;96746.91;;;7.75;100.00
70968;BME280;58629;48.808;8.820;2023-11-21T10:34:20;96763.13;;;7.73;100.00
70968;BME280;58629;48.808;8.820;2023-11-21T10:36:46;96763.56;;;7.68;100.00
70968;BME280;58629;48.808;8.820;2023-11-21T10:39:19;96763.59;;;7.65;100.00
70968;BME280;58629;48.808;8.820;2023-11-21T10:41:46;96757.59;;;7.64;100.00
70968;BME280;58629;48.808;8.820;2023-11-21T10:44:17;96764.66;;;7.71;100.00
70968;BME280;58629;48.808;8.820;2023-11-21T10:46:50;96761.25;;;7.74;100.00
70968;BME280;58629;48.808;8.820;2023-11-21T10:49:24;96760.59;;;7.66;100.00
70968;BME280;58629;48.808;8.820;2023-11-21T10:51:50;96752.69;;;7.66;100.00
70968;BME280;58629;48.808;8.820;2023-11-21T10:54:21;96759.34;;;7.74;100.00
70968;BME280;58629;48.808;8.820;2023-11-21T10:56:56;96762.78;;;7.71;100.00
70968;BME280;58629;48.808;8.820;2023-11-21T10:59:22;96757.56;;;7.68;100.00
70968;BME280;58629;48.808;8.820;2023-11-21T11:01:50;96759.03;;;7.69;100.00
70968;BME280;58629;48.808;8.820;2023-11-21T11:04:19;96762.66;;;7.78;100.00
70968;BME280;58629;48.808;8.820;2023-11-21T11:06:53;96768.03;;;7.71;100.00
70968;BME280;58629;48.808;8.820;2023-11-21T11:09:19;96760.75;;;7.82;100.00
70968;BME280;58629;48.808;8.820;2023-11-21T11:11:46;96764.88;;;7.83;100.00
70968;BME280;58629;48.808;8.820;2023-11-21T11:14:12;96763.66;;;7.92;100.00
70968;BME280;58629;48.808;8.820;2023-11-21T11:16:41;96759.78;;;8.00;100.00
70968;BME280;58629;48.808;8.820;2023-11-21T11:19:11;96766.97;;;7.96;100.00
70968;BME280;58629;48.808;8.820;2023-11-21T11:27:06;96769.22;;;7.97;100.00
70968;BME280;58629;48.808;8.820;2023-11-21T11:32:42;96780.34;;;7.81;100.00
70968;BME280;58629;48.808;8.820;2023-11-21T11:38:31;96781.13;;;7.78;100.00
70968;BME280;58629;48.808;8.820;2023-11-21T11:41:01;96780.03;;;7.76;100.00
70968;BME280;58629;48.808;8.820;2023-11-21T11:43:28;96780.78;;;7.76;100.00
70968;BME280;58629;48.808;8.820;2023-11-21T11:45:57;96782.22;;;7.81;100.00
70968;BME280;58629;48.808;8.820;2023-11-21T11:48:28;96787.16;;;7.79;100.00
70968;BME280;58629;48.808;8.820;2023-11-21T11:51:04;96784.88;;;7.81;100.00
70968;BME280;58629;48.808;8.820;2023-11-21T11:53:37;96781.06;;;7.85;100.00
70968;BME280;58629;48.808;8.820;2023-11-21T11:56:28;96784.16;;;7.77;100.00
70968;BME280;58629;48.808;8.820;2023-11-21T11:58:57;96776.47;;;7.89;100.00
70968;BME280;58629;48.808;8.820;2023-11-21T12:01:25;96783.34;;;7.83;100.00
70968;BME280;58629;48.808;8.820;2023-11-21T12:06:56;96784.47;;;7.82;100.00
70968;BME280;58629;48.808;8.820;2023-11-21T12:09:24;96782.56;;;7.83;100.00
70968;BME280;58629;48.808;8.820;2023-11-21T12:11:51;96781.34;;;7.91;100.00
70968;BME280;58629;48.808;8.820;2023-11-21T12:14:17;96788.47;;;7.94;100.00
70968;BME280;58629;48.808;8.820;2023-11-21T12:16:43;96789.25;;;7.91;100.00
70968;BME280;58629;48.808;8.820;2023-11-21T12:19:10;96791.81;;;7.98;100.00
70968;BME280;58629;48.808;8.820;2023-11-21T12:21:36;96791.72;;;8.05;100.00
70968;BME280;58629;48.808;8.820;2023-11-21T12:24:02;96789.47;;;8.04;100.00
70968;BME280;58629;48.808;8.820;2023-11-21T12:26:28;96787.34;;;8.22;100.00
70968;BME280;58629;48.808;8.820;2023-11-21T12:28:54;96785.09;;;8.20;100.00
70968;BME280;58629;48.808;8.820;2023-11-21T12:31:25;96788.44;;;8.24;100.00
70968;BME280;58629;48.808;8.820;2023-11-21T12:33:50;96794.88;;;8.23;100.00
70968;BME280;58629;48.808;8.820;2023-11-21T12:36:16;96790.31;;;8.27;100.00
70968;BME280;58629;48.808;8.820;2023-11-21T12:38:42;96794.88;;;8.23;100.00
70968;BME280;58629;48.808;8.820;2023-11-21T12:41:09;96797.13;;;8.25;100.00
70968;BME280;58629;48.808;8.820;2023-11-21T12:43:38;96800.91;;;8.20;100.00
70968;BME280;58629;48.808;8.820;2023-11-21T12:46:07;96811.09;;;8.22;100.00
70968;BME280;58629;48.808;8.820;2023-11-21T12:48:37;96806.84;;;8.31;100.00
70968;BME280;58629;48.808;8.820;2023-11-21T12:51:03;96806.03;;;8.34;100.00
70968;BME280;58629;48.808;8.820;2023-11-21T12:53:29;96800.88;;;8.27;100.00
70968;BME280;58629;48.808;8.820;2023-11-21T12:56:02;96805.41;;;8.23;100.00
70968;BME280;58629;48.808;8.820;2023-11-21T12:58:28;96804.66;;;8.23;100.00
70968;BME280;58629;48.808;8.820;2023-11-21T13:00:56;96811.41;;;8.27;100.00
70968;BME280;58629;48.808;8.820;2023-11-21T13:03:22;96806.38;;;8.36;100.00
70968;BME280;58629;48.808;8.820;2023-11-21T13:05:51;96810.53;;;8.37;100.00
70968;BME280;58629;48.808;8.820;2023-11-21T13:08:19;96821.22;;;8.27;100.00
70968;BME280;58629;48.808;8.820;2023-11-21T13:10:46;96817.44;;;8.24;100.00
70968;BME280;58629;48.808;8.820;2023-11-21T13:13:14;96827.44;;;8.10;100.00